Other Surface Observations
Issued by NWS

Home | Current Version | Previous Version | Text Only | Print | Product List | Glossary On
Versions: 1 2 3 4 5 6 7 8 9 10 11 12 13 14 15 16 17 18 19 20 21 22 23 24 25 26 27 28 29 30 31 32 33 34 35 36 37 38 39 40 41 42 43 44 45 46 47 48 49 50
304
SXPA56 KWBC 201339
OSOHW
:SHEF ENCODED 6-MINUTE NOS MET DATA
:NATIONAL WATER LEVEL OBSERVATION NETWORK (NWLON)
:TA(AIR TEMP DEG F)  SLP(SEA LEVEL PRESSURE INCHES)
:UD(WIND DIRECTION WHOLE DEGREES) US (WIND SPEED MPH)
:TW(WATER TEMP DEG F) UG(WIND GUSTS MPH) WC(CONDUCTIVITY uMHOS/CM)
:-9999 (MISSING VALUES)
:PROVIDED BY DOC/NOAA/NOS/CO-OPS, (301) 713-2540
:corms@noaa.gov
.E NWWH1 20181120 Z DH1324/TAIRP/DIN06/   75/   75
.E NWWH1 20181120 Z DH1324/PLIRP/DIN06/30.07/30.06
.E NWWH1 20181120 Z DH1324/USIRP/DIN06/   14/   16
.E NWWH1 20181120 Z DH1324/UDIRP/DIN06/   51/   62
.E NWWH1 20181120 Z DH1324/UGIRP/DIN06/   18/   20
.E NWWH1 20181120 Z DH1318/TAIRG/DIN06/   75/   75
.E NWWH1 20181120 Z DH1318/PLIRG/DIN06/30.07/30.07
.E NWWH1 20181120 Z DH1318/USIRG/DIN06/   13/   14
.E NWWH1 20181120 Z DH1318/UDIRG/DIN06/   54/   51
.E NWWH1 20181120 Z DH1318/UGIRG/DIN06/   16/   18
.E OOUH1 20181120 Z DH1318/TAIRG/DIN06/   74/   74
.E OOUH1 20181120 Z DH1318/PLIRG/DIN06/30.03/30.03
.E OOUH1 20181120 Z DH1318/USIRG/DIN06/    5/    3
.E OOUH1 20181120 Z DH1318/UDIRG/DIN06/   80/  107
.E OOUH1 20181120 Z DH1318/UGIRG/DIN06/   10/   11
.E OOUH1 20181120 Z DH1318/TWIRG/DIN06/   79/   79
.E MOKH1 20181120 Z DH1324/PLIRP/DIN06/30.05/30.04
.E MOKH1 20181120 Z DH1324/TWIRP/DIN06/   78/   78
.E MOKH1 20181120 Z DH1318/TAIRG/DIN06/   75/   76
.E MOKH1 20181120 Z DH1318/PLIRG/DIN06/30.05/30.05
.E MOKH1 20181120 Z DH1318/USIRG/DIN06/   11/    9
.E MOKH1 20181120 Z DH1318/UDIRG/DIN06/   79/   85
.E MOKH1 20181120 Z DH1318/UGIRG/DIN06/   16/   16
.E MOKH1 20181120 Z DH1318/TWIRG/DIN06/   78/   78
.E KLIH1 20181120 Z DH1318/TAIRG/DIN06/   74/   74
.E KLIH1 20181120 Z DH1318/PLIRG/DIN06/30.04/30.04
.E KLIH1 20181120 Z DH1318/USIRG/DIN06/    6/    5
.E KLIH1 20181120 Z DH1318/UDIRG/DIN06/   58/   73
.E KLIH1 20181120 Z DH1318/UGIRG/DIN06/   11/   12
.A KWHH1 20181120 Z DH1324/TAIRP    72/UGIRP     6/PLIRP 29.98/UDIRP    49/USIRP     5/TWIRP    81/WCIRP -9999
.E KWHH1 20181120 Z DH1318/TAIRG/DIN06/   72/   72
.E KWHH1 20181120 Z DH1318/PLIRG/DIN06/29.98/29.98
.E KWHH1 20181120 Z DH1318/USIRG/DIN06/    4/    5
.E KWHH1 20181120 Z DH1318/UDIRG/DIN06/   53/   49
.E KWHH1 20181120 Z DH1318/UGIRG/DIN06/    6/    6
.E KWHH1 20181120 Z DH1318/TWIRG/DIN06/   81/   81
.E ILOH1 20181120 Z DH1300/TAIRG/DIN06/   70/   69
.E ILOH1 20181120 Z DH1300/PLIRG/DIN06/30.03/30.03
.E ILOH1 20181120 Z DH1300/USIRG/DIN06/    6/    7
.E ILOH1 20181120 Z DH1300/UDIRG/DIN06/  240/  242
.E ILOH1 20181120 Z DH1300/UGIRG/DIN06/   10/    9
.E ILOH1 20181120 Z DH1300/TWIRG/DIN06/   79/   78
.A SNDP5 20181120 Z DH1324/TAIRG    75/UGIRG -9999/PLIRG 30.06/UDIRG -9999/USIRG -9999/TWIRG    75/WCIRG -9999
.A APRP7 20181120 Z DH1324/TAIRG    82/UGIRG    14/PLIRG 29.88/UDIRG    52/USIRG    11/TWIRG    84/WCIRG -9999
.A PGBP7 20181120 Z DH1324/TAIRG -9999/UGIRG     6/PLIRG 29.89/UDIRG     1/USIRG     3/TWIRG -9999/WCIRG -9999
.A NSTP6 20181120 Z DH1324/TAIRG    80/UGIRG     2/PLIRG 29.83/UDIRG   289/USIRG     1/TWIRG    85/WCIRG -9999
.E KWJP8 20181120 Z DH1324/PLIRG/DIN06/29.80/29.80
.E KWJP8 20181120 Z DH1324/TWIRG/DIN06/   85/   85
.A WAKP8 20181120 Z DH1324/TAIRG    81/UGIRG     4/PLIRG 29.91/UDIRG   172/USIRG     4/TWIRG    87/WCIRG -9999



USA.gov is the U.S. government's official web portal to all federal, state and local government web resources and services.